createdAt,value
2022-09-21T00:03:23.196Z,7.28
2022-09-21T00:08:25.167Z,7.32
2022-09-21T00:13:28.221Z,7.38
2022-09-21T00:18:30.801Z,7.45
2022-09-21T00:23:35.213Z,7.15
2022-09-21T00:28:37.362Z,6.94
2022-09-21T00:33:40.214Z,6.81
2022-09-21T00:38:41.842Z,6.71
2022-09-21T00:44:18.503Z,6.72
2022-09-21T00:49:21.799Z,6.69
2022-09-21T00:54:29.240Z,6.81
2022-09-21T00:59:36.599Z,6.96
2022-09-21T01:04:38.891Z,7.07
2022-09-21T01:09:43.323Z,7.07
2022-09-21T01:15:18.223Z,7.09
2022-09-21T01:20:57.173Z,7.03
2022-09-21T01:26:17.888Z,6.83
2022-09-21T01:31:28.593Z,6.71
2022-09-21T01:36:32.937Z,6.72
2022-09-21T01:41:38.004Z,6.55
2022-09-21T01:46:39.772Z,6.35
2022-09-21T01:51:48.338Z,6.34
2022-09-21T01:56:59.612Z,6.33
2022-09-21T02:02:09.831Z,6.26
2022-09-21T02:07:12.035Z,6.37
2022-09-21T02:12:18.774Z,6.39
2022-09-21T02:17:36.606Z,6.40
2022-09-21T02:23:11.535Z,6.49
2022-09-21T02:28:28.411Z,6.50
2022-09-21T02:33:42.123Z,6.29
2022-09-21T02:39:05.579Z,5.97
2022-09-21T02:44:13.454Z,5.79
2022-09-21T02:49:45.006Z,5.88
2022-09-21T02:54:51.497Z,6.03
2022-09-21T02:59:53.966Z,6.17
2022-09-21T03:04:55.619Z,6.14
2022-09-21T03:09:57.230Z,6.00
2022-09-21T03:15:00.077Z,5.93
2022-09-21T03:20:02.385Z,5.93
2022-09-21T03:25:04.963Z,5.99
2022-09-21T03:30:07.009Z,6.15
2022-09-21T03:35:08.888Z,6.23
2022-09-21T03:40:12.523Z,6.23
2022-09-21T03:45:14.340Z,6.22
2022-09-21T03:50:16.086Z,6.27
2022-09-21T03:55:18.229Z,6.29
2022-09-21T04:00:20.433Z,6.23
2022-09-21T04:05:23.319Z,6.14
2022-09-21T04:10:32.705Z,6.03
2022-09-21T04:15:34.693Z,5.91
2022-09-21T04:20:36.307Z,5.86
2022-09-21T04:25:38.030Z,5.76
2022-09-21T04:30:40.264Z,5.82
2022-09-21T04:35:42.763Z,5.94
2022-09-21T04:40:44.408Z,5.74
2022-09-21T04:45:46.053Z,5.66
2022-09-21T04:50:51.219Z,5.70
2022-09-21T04:55:52.914Z,5.77
2022-09-21T05:00:58.426Z,5.64
2022-09-21T05:06:00.398Z,5.47
2022-09-21T05:11:02.118Z,5.48
2022-09-21T05:16:04.096Z,5.59
2022-09-21T05:21:07.337Z,5.56
2022-09-21T05:26:09.043Z,5.46
2022-09-21T05:31:29.043Z,5.44
2022-09-21T05:36:39.425Z,5.49
2022-09-21T05:41:41.583Z,5.59
2022-09-21T05:46:53.933Z,5.79
2022-09-21T05:52:24.491Z,5.77
2022-09-21T05:57:44.356Z,5.84
2022-09-21T06:03:15.493Z,5.84
2022-09-21T06:08:19.121Z,5.94
2022-09-21T06:13:21.047Z,6.06
2022-09-21T06:18:22.750Z,6.31
2022-09-21T06:23:25.300Z,6.54
2022-09-21T06:28:27.895Z,6.66
2022-09-21T06:33:29.716Z,6.83
2022-09-21T06:38:31.834Z,7.00
2022-09-21T06:43:33.631Z,7.12
2022-09-21T06:48:35.370Z,7.15
2022-09-21T06:53:37.086Z,7.27
2022-09-21T06:58:39.015Z,7.31
2022-09-21T07:03:42.040Z,7.44
2022-09-21T07:14:06.570Z,7.57
2022-09-21T07:19:11.895Z,7.70
2022-09-21T07:24:15.086Z,7.83
2022-09-21T07:29:16.718Z,7.93
2022-09-21T07:34:18.605Z,8.06
2022-09-21T07:39:20.284Z,8.10
2022-09-21T07:44:22.627Z,8.34
2022-09-21T07:49:24.284Z,8.48
2022-09-21T07:54:25.967Z,8.56
2022-09-21T07:59:27.773Z,8.83
2022-09-21T08:04:29.527Z,8.95
2022-09-21T08:09:31.164Z,9.18
2022-09-21T08:14:33.554Z,9.36
2022-09-21T08:19:36.271Z,9.53
2022-09-21T08:24:38.496Z,9.81
2022-09-21T08:29:40.129Z,10.10
2022-09-21T08:34:41.719Z,10.39
2022-09-21T08:39:43.404Z,10.64
2022-09-21T08:44:59.526Z,10.88
2022-09-21T08:50:03.815Z,11.12
2022-09-21T08:55:19.047Z,11.31
2022-09-21T09:00:21.135Z,11.50
2022-09-21T09:05:41.169Z,11.68
2022-09-21T09:10:54.965Z,11.87
2022-09-21T09:16:18.016Z,12.06
2022-09-21T09:21:30.842Z,12.24
2022-09-21T09:26:49.547Z,12.44
2022-09-21T09:31:54.718Z,12.61
2022-09-21T09:37:00.165Z,12.72
2022-09-21T09:42:21.997Z,12.96
2022-09-21T09:47:41.739Z,13.07
2022-09-21T09:52:44.034Z,13.11
2022-09-21T09:57:48.202Z,13.01
2022-09-21T10:02:58.698Z,13.07
2022-09-21T10:08:01.382Z,13.37
2022-09-21T10:13:12.524Z,13.68
2022-09-21T10:18:37.925Z,13.68
2022-09-21T10:23:40.061Z,13.77
2022-09-21T10:29:02.512Z,14.08
2022-09-21T10:34:04.207Z,14.10
2022-09-21T10:39:17.827Z,14.22
2022-09-21T10:44:22.298Z,14.35
2022-09-21T10:49:28.596Z,14.59
2022-09-21T10:54:33.297Z,14.58
2022-09-21T10:59:37.902Z,14.35
2022-09-21T11:04:48.166Z,14.27
2022-09-21T11:10:17.736Z,14.46
2022-09-21T11:15:46.119Z,14.70
2022-09-21T11:21:05.623Z,14.76
2022-09-21T11:26:18.528Z,15.13
2022-09-21T11:31:49.700Z,15.12
2022-09-21T11:36:51.598Z,15.21
2022-09-21T11:42:24.060Z,15.00
2022-09-21T11:47:55.483Z,14.79
2022-09-21T11:53:25.468Z,15.05
2022-09-21T11:58:54.259Z,15.39
2022-09-21T12:04:08.139Z,15.57
2022-09-21T12:09:47.281Z,15.80
2022-09-21T12:15:02.638Z,15.81
2022-09-21T12:20:28.109Z,16.26
2022-09-21T12:25:42.023Z,16.37
2022-09-21T12:30:49.035Z,16.37
2022-09-21T12:36:00.226Z,16.56
2022-09-21T12:41:40.124Z,16.45
2022-09-21T12:46:52.320Z,16.73
2022-09-21T12:51:59.215Z,16.40
2022-09-21T12:57:29.617Z,16.44
2022-09-21T13:03:01.437Z,16.52
2022-09-21T13:08:16.113Z,16.45
2022-09-21T13:13:45.066Z,16.36
2022-09-21T13:18:56.530Z,16.29
2022-09-21T13:24:04.501Z,16.43
2022-09-21T13:29:19.733Z,16.98
2022-09-21T13:34:23.195Z,17.27
2022-09-21T13:39:28.576Z,17.53
2022-09-21T13:44:33.495Z,17.11
2022-09-21T13:49:45.091Z,17.24
2022-09-21T13:54:52.079Z,17.11
2022-09-21T14:00:07.232Z,16.42
2022-09-21T14:05:30.679Z,15.97
2022-09-21T14:10:36.245Z,16.47
2022-09-21T14:15:39.901Z,16.57
2022-09-21T14:21:11.635Z,16.45
2022-09-21T14:26:39.600Z,16.55
2022-09-21T14:31:42.329Z,16.54
2022-09-21T14:36:47.004Z,16.59
2022-09-21T14:41:51.978Z,16.70
2022-09-21T14:47:12.540Z,17.10
2022-09-21T14:52:41.226Z,16.92
2022-09-21T14:58:14.391Z,16.86
2022-09-21T15:03:39.165Z,16.88
2022-09-21T15:09:13.778Z,16.36
2022-09-21T15:14:37.187Z,15.77
2022-09-21T15:19:38.853Z,15.35
2022-09-21T15:24:53.181Z,15.38
2022-09-21T15:29:56.494Z,15.86
2022-09-21T15:35:02.138Z,16.20
2022-09-21T15:40:07.549Z,16.07
2022-09-21T15:45:18.197Z,16.09
2022-09-21T15:50:20.768Z,16.08
2022-09-21T15:55:23.576Z,16.13
2022-09-21T16:00:30.304Z,16.05
2022-09-21T16:05:44.126Z,15.99
2022-09-21T16:10:45.892Z,15.89
2022-09-21T16:16:07.645Z,15.83
2022-09-21T16:21:30.915Z,15.72
2022-09-21T16:26:36.878Z,15.58
2022-09-21T16:31:38.973Z,15.57
2022-09-21T16:36:41.871Z,15.35
2022-09-21T16:41:49.347Z,15.05
2022-09-21T16:47:02.685Z,14.90
2022-09-21T16:52:05.671Z,14.72
2022-09-21T16:57:07.962Z,14.25
2022-09-21T17:02:13.988Z,13.65
2022-09-21T17:07:17.050Z,13.23
2022-09-21T17:12:18.827Z,12.85
2022-09-21T17:17:23.395Z,12.30
2022-09-21T17:22:25.489Z,11.93
2022-09-21T17:27:29.062Z,11.60
2022-09-21T17:32:33.154Z,11.57
2022-09-21T17:37:38.077Z,11.51
2022-09-21T17:42:40.843Z,11.41
2022-09-21T17:47:42.920Z,11.25
2022-09-21T17:53:03.808Z,11.01
2022-09-21T17:58:18.590Z,10.75
2022-09-21T18:03:32.027Z,10.85
2022-09-21T18:08:36.109Z,10.93
2022-09-21T18:13:56.778Z,11.01
2022-09-21T18:19:19.881Z,10.81
2022-09-21T18:24:30.976Z,10.63
2022-09-21T18:29:42.098Z,10.51
2022-09-21T18:35:08.877Z,10.51
2022-09-21T18:40:23.648Z,10.38
2022-09-21T18:45:32.730Z,10.37
2022-09-21T18:50:55.696Z,10.12
2022-09-21T18:55:57.441Z,9.83
2022-09-21T19:01:00.305Z,9.74
2022-09-21T19:06:15.063Z,9.91
2022-09-21T19:11:27.327Z,9.87
2022-09-21T19:16:33.124Z,9.76
2022-09-21T19:21:48.143Z,9.51
2022-09-21T19:27:08.575Z,9.35
2022-09-21T19:32:45.466Z,9.23
2022-09-21T19:37:48.504Z,9.06
2022-09-21T19:43:10.077Z,8.83
2022-09-21T19:48:15.470Z,8.66
2022-09-21T19:53:36.312Z,8.71
2022-09-21T19:58:56.855Z,8.54
2022-09-21T20:03:59.915Z,8.67
2022-09-21T20:09:11.846Z,8.90
2022-09-21T20:14:53.124Z,8.99
2022-09-21T20:20:13.715Z,8.69
2022-09-21T20:25:22.993Z,8.55
2022-09-21T20:30:28.445Z,8.50
2022-09-21T20:35:30.831Z,8.55
2022-09-21T20:40:33.099Z,8.45
2022-09-21T20:45:35.466Z,8.49
2022-09-21T20:50:37.387Z,8.60
2022-09-21T20:55:41.019Z,8.50
2022-09-21T21:00:42.686Z,8.33
2022-09-21T21:05:44.861Z,8.49
2022-09-21T21:10:46.934Z,8.61
2022-09-21T21:15:53.007Z,8.68
2022-09-21T21:20:54.819Z,8.64
2022-09-21T21:25:59.139Z,8.54
2022-09-21T21:31:01.036Z,8.46
2022-09-21T21:36:06.504Z,8.25
2022-09-21T21:41:08.272Z,8.12
2022-09-21T21:46:10.982Z,8.02
2022-09-21T21:51:12.799Z,8.06
2022-09-21T21:56:17.078Z,8.06
2022-09-21T22:01:21.296Z,8.01
2022-09-21T22:06:24.115Z,8.05
2022-09-21T22:11:27.347Z,8.03
2022-09-21T22:16:31.412Z,7.87
2022-09-21T22:21:38.657Z,7.83
2022-09-21T22:26:45.163Z,7.81
2022-09-21T22:31:48.995Z,7.84
2022-09-21T22:36:50.845Z,7.82
2022-09-21T22:41:52.486Z,7.79
2022-09-21T22:46:54.349Z,7.68
2022-09-21T22:51:56.162Z,7.56
2022-09-21T22:56:57.769Z,7.40
2022-09-21T23:01:59.423Z,7.41
2022-09-21T23:07:01.029Z,7.39
2022-09-21T23:12:02.702Z,7.43
2022-09-21T23:17:04.374Z,7.48
2022-09-21T23:22:06.610Z,7.54
2022-09-21T23:27:08.250Z,7.54
2022-09-21T23:32:09.869Z,7.42
2022-09-21T23:37:11.716Z,7.31
2022-09-21T23:42:13.377Z,7.14
2022-09-21T23:47:15.109Z,7.19
2022-09-21T23:52:17.077Z,7.04
2022-09-21T23:57:18.723Z,6.90
